Glasgow, United Kingdom
Current Conditions -  °F | °C
As of 10:20 PM on Tuesday 25 Nov 2014 (Local Time) from EGPF Reporting Station
Overcast Overcast  
Wind Chill: 45°   Ceiling: 3200
Heat Index: 45°   Visibility: 6mi
Dew Point: 45°   Wind: 3mph
Humidity: 100%   Direction: 70°ENE
Pressure: 30.12"   Gusts: NA
Location:  55.87°N, 4.26°W
Report Text: EGPF 252220Z AUTO 07003KT 9999 OVC032 07/07 Q1020
Loading
Personal Weather Stations






























Interactive Weather Map New forecast layout! Learn more

10-Day Weather Forecast

Advertisements
Track Severe Weather on mobile